createdAt,value
2023-02-14T00:00:39.690Z,7.5
2023-02-14T00:01:19.242Z,8.5
2023-02-14T00:03:19.532Z,9.5
2023-02-14T00:04:19.437Z,7.599
2023-02-14T00:05:19.993Z,8.5
2023-02-14T00:06:19.846Z,8
2023-02-14T00:07:19.248Z,8.800
2023-02-14T00:08:19.836Z,9.399
2023-02-14T00:09:19.505Z,8.399
2023-02-14T00:10:19.393Z,8.600
2023-02-14T00:11:19.517Z,9.100
2023-02-14T00:12:19.332Z,8.300
2023-02-14T00:13:19.731Z,8.399
2023-02-14T00:14:19.225Z,8
2023-02-14T00:15:19.889Z,8.899
2023-02-14T00:16:19.038Z,8.600
2023-02-14T00:17:19.177Z,9.100
2023-02-14T00:18:19.828Z,7.800
2023-02-14T00:19:19.031Z,8.399
2023-02-14T00:20:19.752Z,7.699
2023-02-14T00:21:19.105Z,7.599
2023-02-14T00:22:19.312Z,9.399
2023-02-14T00:23:19.263Z,9.199
2023-02-14T00:24:19.763Z,9.800
2023-02-14T00:25:19.430Z,8.399
2023-02-14T00:26:19.134Z,8.600
2023-02-14T00:27:19.184Z,8
2023-02-14T00:28:19.303Z,9.800
2023-02-14T00:29:19.491Z,9.100
2023-02-14T00:30:20.104Z,8.800
2023-02-14T00:31:19.037Z,8.5
2023-02-14T00:32:19.050Z,9.399
2023-02-14T00:33:19.103Z,8.600
2023-02-14T00:34:19.449Z,9.5
2023-02-14T00:35:19.989Z,8.300
2023-02-14T00:36:18.821Z,8.899
2023-02-14T00:37:18.955Z,9.399
2023-02-14T00:38:18.959Z,8.300
2023-02-14T00:39:19.045Z,9.600
2023-02-14T00:40:19.422Z,9.800
2023-02-14T00:41:19.330Z,9.699
2023-02-14T00:42:18.842Z,9.199
2023-02-14T00:43:18.966Z,8.300
2023-02-14T00:44:19.740Z,9.5
2023-02-14T00:45:19.174Z,8.800
2023-02-14T00:46:19.368Z,9.399
2023-02-14T00:47:19.542Z,9.800
2023-02-14T00:48:19.608Z,9.199
2023-02-14T00:49:19.601Z,8.399
2023-02-14T00:50:19.673Z,9.199
2023-02-14T00:51:19.083Z,9
2023-02-14T00:52:19.180Z,9.800
2023-02-14T00:54:19.482Z,8.399
2023-02-14T00:55:19.008Z,9
2023-02-14T00:56:19.381Z,9.199
2023-02-14T00:57:19.424Z,8.300
2023-02-14T00:58:19.479Z,9.699
2023-02-14T00:59:18.961Z,8.199
2023-02-14T01:00:20.162Z,8.800
2023-02-14T01:02:19.203Z,9.5
2023-02-14T01:03:19.243Z,9.300
2023-02-14T01:05:19.021Z,9.899
2023-02-14T01:06:19.616Z,9.100
2023-02-14T01:09:19.671Z,8.600
2023-02-14T01:10:19.957Z,8.899
2023-02-14T01:11:20.110Z,8.399
2023-02-14T01:12:19.854Z,7.900
2023-02-14T01:13:19.487Z,8.699
2023-02-14T01:14:17.244Z,8.199
2023-02-14T01:15:20.358Z,9
2023-02-14T01:16:19.344Z,8.600
2023-02-14T01:17:19.455Z,8.800
2023-02-14T01:18:19.181Z,9.300
2023-02-14T01:19:19.875Z,8.699
2023-02-14T01:21:19.876Z,8.5
2023-02-14T01:22:19.441Z,9.399
2023-02-14T01:23:19.669Z,8.699
2023-02-14T01:24:18.917Z,8.5
2023-02-14T01:25:19.160Z,9
2023-02-14T01:26:19.159Z,8.800
2023-02-14T01:27:19.025Z,8.100
2023-02-14T01:28:18.822Z,8.5
2023-02-14T01:29:18.734Z,8.600
2023-02-14T01:30:19.607Z,7.699
2023-02-14T01:31:19.365Z,9.199
2023-02-14T01:32:18.776Z,8.899
2023-02-14T01:33:18.700Z,8.300
2023-02-14T01:34:19.086Z,8.399
2023-02-14T01:35:19.313Z,8
2023-02-14T01:36:19.546Z,7.699
2023-02-14T01:37:19.628Z,8.199
2023-02-14T01:39:18.878Z,8.100
2023-02-14T01:40:18.927Z,7.699
2023-02-14T01:41:19.258Z,8.600
2023-02-14T01:42:19.610Z,9
2023-02-14T01:43:18.795Z,8.300
2023-02-14T01:44:19.317Z,8.100
2023-02-14T01:45:19.440Z,7.5
2023-02-14T01:46:19.452Z,7.900
2023-02-14T01:47:19.455Z,7.599
2023-02-14T01:48:19.686Z,8.199
2023-02-14T01:49:19.748Z,8.100
2023-02-14T01:50:19.110Z,8
2023-02-14T01:51:19.063Z,7.900
2023-02-14T01:52:19.230Z,8.100
2023-02-14T01:53:19.426Z,7.400
2023-02-14T01:54:19.727Z,7.199
2023-02-14T01:55:19.040Z,8
2023-02-14T01:56:19.502Z,6.800
2023-02-14T01:57:19.579Z,8.100
2023-02-14T01:58:18.840Z,7.800
2023-02-14T01:59:18.854Z,8.300
2023-02-14T02:00:19.675Z,7.800
2023-02-14T02:01:19.508Z,8.800
2023-02-14T02:02:19.545Z,8.100
2023-02-14T02:03:19.478Z,7.900
2023-02-14T02:04:19.266Z,7.599
2023-02-14T02:05:20.053Z,7.900
2023-02-14T02:06:19.350Z,7.5
2023-02-14T02:07:19.726Z,8.100
2023-02-14T02:08:19.283Z,8.800
2023-02-14T02:09:19.196Z,7.800
2023-02-14T02:10:19.302Z,7.599
2023-02-14T02:12:19.852Z,8.100
2023-02-14T02:13:19.268Z,7.900
2023-02-14T02:14:19.314Z,8
2023-02-14T02:15:34.003Z,7.699
2023-02-14T02:16:19.044Z,7.599
2023-02-14T02:17:19.525Z,6.800
2023-02-14T02:18:19.622Z,8
2023-02-14T02:19:18.883Z,7.599
2023-02-14T02:20:19.291Z,8
2023-02-14T02:21:19.456Z,7.800
2023-02-14T02:22:19.928Z,7.300
2023-02-14T02:23:19.413Z,8.300
2023-02-14T02:24:19.598Z,8.800
2023-02-14T02:25:18.823Z,9.199
2023-02-14T02:26:18.718Z,8.699
2023-02-14T02:27:18.989Z,8.600
2023-02-14T02:28:18.789Z,8.800
2023-02-14T02:29:18.664Z,9
2023-02-14T02:30:19.035Z,9.199
2023-02-14T02:31:19.051Z,9.399
2023-02-14T02:32:19.303Z,7.800
2023-02-14T02:33:19.438Z,7.900
2023-02-14T02:34:19.632Z,9
2023-02-14T02:35:19.882Z,7.699
2023-02-14T02:36:19.450Z,8.199
2023-02-14T02:37:19.632Z,9.199
2023-02-14T02:38:18.644Z,8.800
2023-02-14T02:39:18.882Z,8.300
2023-02-14T02:40:19.375Z,9.300
2023-02-14T02:41:19.465Z,10.10
2023-02-14T02:42:19.430Z,10.19
2023-02-14T02:43:19.577Z,10.89
2023-02-14T02:44:20.050Z,11.19
2023-02-14T02:45:19.988Z,10
2023-02-14T02:46:19.593Z,11.80
2023-02-14T02:47:19.376Z,10.60
2023-02-14T02:48:19.451Z,9.899
2023-02-14T02:49:19.572Z,10.5
2023-02-14T02:50:19.713Z,10.60
2023-02-14T02:51:19.146Z,11.19
2023-02-14T02:52:19.637Z,9.399
2023-02-14T02:53:19.279Z,10.19
2023-02-14T02:56:19.999Z,12.19
2023-02-14T02:57:19.590Z,10.19
2023-02-14T02:58:19.571Z,11.30
2023-02-14T02:59:19.104Z,10.5
2023-02-14T03:00:20.598Z,11.30
2023-02-14T03:01:19.255Z,10.5
2023-02-14T03:02:19.534Z,10.30
2023-02-14T03:03:19.519Z,11.19
2023-02-14T03:04:19.517Z,10.69
2023-02-14T03:05:18.916Z,9.899
2023-02-14T03:06:19.537Z,9.800
2023-02-14T03:07:19.301Z,10.89
2023-02-14T03:08:19.258Z,8.600
2023-02-14T03:09:19.662Z,10
2023-02-14T03:10:20.177Z,9.600
2023-02-14T03:11:19.573Z,9.300
2023-02-14T03:12:19.751Z,10.19
2023-02-14T03:13:19.052Z,12.39
2023-02-14T03:14:18.969Z,11.10
2023-02-14T03:15:19.665Z,14.80
2023-02-14T03:16:19.267Z,19.60
2023-02-14T03:17:19.133Z,15.10
2023-02-14T03:18:19.293Z,11.89
2023-02-14T03:19:19.900Z,13.39
2023-02-14T03:20:19.583Z,11.80
2023-02-14T03:21:19.454Z,11.39
2023-02-14T03:22:19.352Z,11.69
2023-02-14T03:23:19.096Z,10.30
2023-02-14T03:24:19.337Z,11.19
2023-02-14T03:25:19.861Z,9.899
2023-02-14T03:26:19.477Z,9.600
2023-02-14T03:27:19.413Z,8.699
2023-02-14T03:28:19.586Z,9.399
2023-02-14T03:30:19.550Z,9.5
2023-02-14T03:32:19.557Z,8.399
2023-02-14T03:33:19.298Z,9.199
2023-02-14T03:34:19.514Z,8.199
2023-02-14T03:35:19.617Z,8.899
2023-02-14T03:36:18.965Z,8.600
2023-02-14T03:37:19.548Z,8.5
2023-02-14T03:38:19.709Z,8.600
2023-02-14T03:39:19.280Z,8.300
2023-02-14T03:40:19.535Z,7.800
2023-02-14T03:41:19.632Z,8.199
2023-02-14T03:42:19.137Z,9.600
2023-02-14T03:43:19.381Z,8.899
2023-02-14T03:44:19.299Z,8.5
2023-02-14T03:45:20.044Z,8
2023-02-14T03:47:19.677Z,8.600
2023-02-14T03:48:19.308Z,8.300
2023-02-14T03:49:19.806Z,8.399
2023-02-14T03:51:20.232Z,9
2023-02-14T03:52:19.518Z,8
2023-02-14T03:53:19.752Z,7.199
2023-02-14T03:54:19.579Z,8.300
2023-02-14T03:55:19.621Z,9.300
2023-02-14T03:56:19.663Z,7.800
2023-02-14T03:57:19.496Z,8.300
2023-02-14T03:59:19.521Z,8.100
2023-02-14T04:00:20.926Z,8.800
2023-02-14T04:01:19.687Z,8.199
2023-02-14T04:02:19.804Z,8.300
2023-02-14T04:03:19.840Z,8.100
2023-02-14T04:04:19.618Z,9.199
2023-02-14T04:05:19.786Z,9
2023-02-14T04:06:19.907Z,8.300
2023-02-14T04:07:19.588Z,8
2023-02-14T04:08:19.317Z,8.100
2023-02-14T04:09:19.798Z,8.5
2023-02-14T04:10:19.434Z,7.300
2023-02-14T04:11:19.712Z,8.199
2023-02-14T04:12:26.498Z,7.699
2023-02-14T04:13:19.578Z,8
2023-02-14T04:14:19.505Z,7.699
2023-02-14T04:15:20.362Z,9.399
2023-02-14T04:16:19.800Z,9.699
2023-02-14T04:17:19.449Z,7.900
2023-02-14T04:18:20.001Z,7.800
2023-02-14T04:19:19.438Z,8.300
2023-02-14T04:20:25.255Z,8.600
2023-02-14T04:21:20.306Z,8.899
2023-02-14T04:22:20.218Z,8
2023-02-14T04:23:19.780Z,8.600
2023-02-14T04:24:20.299Z,8.5
2023-02-14T04:25:20.325Z,8.600
2023-02-14T04:26:27.292Z,7.699
2023-02-14T04:27:20.756Z,7.900
2023-02-14T04:28:20.552Z,8.399
2023-02-14T04:29:19.988Z,7.699
2023-02-14T04:30:20.401Z,8.699
2023-02-14T04:31:20.132Z,8.100
2023-02-14T04:32:20.204Z,8
2023-02-14T04:33:19.985Z,8.199
2023-02-14T04:34:20.116Z,7.699
2023-02-14T04:35:20.610Z,7.300
2023-02-14T04:36:20.177Z,8.600
2023-02-14T04:37:20.251Z,9.199
2023-02-14T04:38:20.349Z,8.199
2023-02-14T04:39:20.092Z,7.900
2023-02-14T04:40:21.061Z,8.100
2023-02-14T04:41:20.585Z,7.5
2023-02-14T04:42:20.189Z,8
2023-02-14T04:43:20.323Z,8.5
2023-02-14T04:44:20.021Z,9
2023-02-14T04:45:20.040Z,8.5
2023-02-14T04:46:20.016Z,8.600
2023-02-14T04:47:20.109Z,8.5
2023-02-14T04:48:19.943Z,7.5
2023-02-14T04:50:19.696Z,8.100
2023-02-14T04:51:19.791Z,8
2023-02-14T04:52:19.439Z,8.199
2023-02-14T04:53:19.867Z,8.100
2023-02-14T04:54:38.716Z,8.600
2023-02-14T04:55:19.600Z,8.399
2023-02-14T04:56:19.218Z,8.300
2023-02-14T04:57:20.360Z,7.800
2023-02-14T04:58:19.963Z,7.5
2023-02-14T04:59:19.701Z,8.100
2023-02-14T05:00:20.668Z,8
2023-02-14T05:01:20.114Z,7.900
2023-02-14T05:02:19.827Z,8.199
2023-02-14T05:03:19.792Z,8
2023-02-14T05:04:19.520Z,8.399
2023-02-14T05:05:20.292Z,7.699
2023-02-14T05:06:19.681Z,7.5
2023-02-14T05:08:19.981Z,7.599
2023-02-14T05:09:19.894Z,7.099
2023-02-14T05:10:19.794Z,7.800
2023-02-14T05:11:19.887Z,8
2023-02-14T05:12:19.422Z,7.5
2023-02-14T05:13:19.864Z,7.599
2023-02-14T05:14:19.419Z,7.699
2023-02-14T05:15:20.255Z,7.599
2023-02-14T05:16:20.580Z,7.5
2023-02-14T05:17:19.587Z,7.599
2023-02-14T05:18:19.498Z,7.400
2023-02-14T05:19:19.028Z,6.900
2023-02-14T05:21:19.807Z,7.199
2023-02-14T05:22:19.797Z,7.5
2023-02-14T05:23:19.579Z,7.199
2023-02-14T05:24:20.128Z,8
2023-02-14T05:25:20.278Z,7.800
2023-02-14T05:26:19.914Z,7.900
2023-02-14T05:27:19.943Z,7.599
2023-02-14T05:28:19.777Z,7.300
2023-02-14T05:30:20.328Z,7.5
2023-02-14T05:31:19.577Z,7.699
2023-02-14T05:32:19.886Z,8.100
2023-02-14T05:34:21.650Z,9.5
2023-02-14T05:35:19.890Z,7.400
2023-02-14T05:36:20.109Z,8.300
2023-02-14T05:37:19.984Z,7.300
2023-02-14T05:38:19.939Z,8.699
2023-02-14T05:39:20.133Z,8.899
2023-02-14T05:40:20.324Z,9.800
2023-02-14T05:41:19.786Z,9.300
2023-02-14T05:42:19.604Z,10
2023-02-14T05:43:19.371Z,8.600
2023-02-14T05:44:20.163Z,10.30
2023-02-14T05:45:20.328Z,9.699
2023-02-14T05:46:18.990Z,9.199
2023-02-14T05:47:19.979Z,11
2023-02-14T05:48:20.035Z,10
2023-02-14T05:49:19.822Z,10.60
2023-02-14T05:50:20.300Z,9.800
2023-02-14T05:51:19.279Z,9.699
2023-02-14T05:52:19.530Z,10.10
2023-02-14T05:53:19.332Z,10.30
2023-02-14T05:54:19.929Z,11
2023-02-14T05:55:20.190Z,10.5
2023-02-14T05:56:19.903Z,9.800
2023-02-14T05:57:19.656Z,10.80
2023-02-14T05:58:19.824Z,10.39
2023-02-14T05:59:19.598Z,9.699
2023-02-14T06:00:20.229Z,11
2023-02-14T06:01:19.518Z,9.399
2023-02-14T06:02:19.621Z,10.10
2023-02-14T06:03:19.670Z,9.5
2023-02-14T06:04:19.586Z,9.399
2023-02-14T06:05:19.773Z,11
2023-02-14T06:06:19.730Z,9.5
2023-02-14T06:07:19.867Z,10.39
2023-02-14T06:08:19.731Z,11.39
2023-02-14T06:09:19.580Z,11.5
2023-02-14T06:10:19.478Z,9.300
2023-02-14T06:11:19.581Z,11.5
2023-02-14T06:12:19.931Z,11.30
2023-02-14T06:13:19.960Z,9.5
2023-02-14T06:14:20.390Z,9.899
2023-02-14T06:15:19.767Z,10.10
2023-02-14T06:16:19.708Z,10.19
2023-02-14T06:17:19.606Z,9.899
2023-02-14T06:18:19.565Z,9.800
2023-02-14T06:19:20.091Z,10.89
2023-02-14T06:20:20.228Z,9.699
2023-02-14T06:21:19.790Z,10.19
2023-02-14T06:22:19.258Z,8.800
2023-02-14T06:23:19.945Z,10.30
2023-02-14T06:24:19.992Z,8.600
2023-02-14T06:25:19.874Z,10.39
2023-02-14T06:26:19.864Z,9
2023-02-14T06:27:19.571Z,9.300
2023-02-14T06:28:19.394Z,10.5
2023-02-14T06:29:19.956Z,9.600
2023-02-14T06:30:20.189Z,10.89
2023-02-14T06:31:19.755Z,11.39
2023-02-14T06:32:19.871Z,10.60
2023-02-14T06:34:19.806Z,11.10
2023-02-14T06:35:19.680Z,11.30
2023-02-14T06:36:19.550Z,11.89
2023-02-14T06:37:19.948Z,10.60
2023-02-14T06:38:19.654Z,10.5
2023-02-14T06:39:19.067Z,9.199
2023-02-14T06:40:20.260Z,10
2023-02-14T06:43:24.973Z,10.10
2023-02-14T06:44:19.853Z,9.100
2023-02-14T06:45:25.235Z,10.5
2023-02-14T06:46:20.188Z,9.600
2023-02-14T06:47:20.208Z,13.5
2023-02-14T06:48:20.140Z,18.10
2023-02-14T06:49:19.643Z,19
2023-02-14T06:50:20.641Z,15.19
2023-02-14T06:51:19.480Z,20.10
2023-02-14T06:52:19.546Z,16.70
2023-02-14T06:53:19.697Z,14.30
2023-02-14T06:54:19.751Z,18.29
2023-02-14T06:55:20.282Z,15
2023-02-14T06:56:20.067Z,14.80
2023-02-14T06:57:19.808Z,15
2023-02-14T06:58:19.648Z,14
2023-02-14T06:59:19.808Z,14.39
2023-02-14T07:00:20.612Z,12.19
2023-02-14T07:01:20.107Z,14
2023-02-14T07:02:19.564Z,12
2023-02-14T07:03:20.172Z,12.89
2023-02-14T07:04:19.268Z,12.60
2023-02-14T07:05:19.843Z,12.5
2023-02-14T07:06:20.233Z,12.80
2023-02-14T07:07:20.290Z,15.60
2023-02-14T07:08:19.616Z,13.39
2023-02-14T07:09:19.501Z,10.39
2023-02-14T07:10:19.647Z,11.19
2023-02-14T07:11:19.859Z,10.39
2023-02-14T07:12:19.452Z,10.80
2023-02-14T07:13:19.711Z,12.39
2023-02-14T07:14:20.036Z,12.89
2023-02-14T07:15:20.673Z,12.39
2023-02-14T07:16:20.034Z,13.89
2023-02-14T07:17:20.531Z,11.69
2023-02-14T07:18:19.847Z,13.39
2023-02-14T07:19:19.906Z,13.5
2023-02-14T07:20:22.505Z,13.89
2023-02-14T07:21:19.768Z,11.30
2023-02-14T07:22:19.595Z,13.60
2023-02-14T07:23:19.859Z,13.5
2023-02-14T07:24:19.996Z,12.5
2023-02-14T07:25:20.103Z,13.19
2023-02-14T07:26:19.523Z,15.5
2023-02-14T07:27:19.559Z,12.80
2023-02-14T07:28:19.617Z,14.69
2023-02-14T07:30:19.777Z,13.5
2023-02-14T07:31:20.432Z,11.69
2023-02-14T07:32:20.451Z,12.89
2023-02-14T07:33:19.994Z,13.10
2023-02-14T07:34:20.284Z,11.10
2023-02-14T07:35:20.167Z,11.69
2023-02-14T07:37:19.794Z,11.80
2023-02-14T07:38:20.250Z,12.69
2023-02-14T07:39:19.612Z,12.19
2023-02-14T07:40:20.818Z,12.60
2023-02-14T07:41:20.016Z,12
2023-02-14T07:42:19.458Z,14.5
2023-02-14T07:43:20.217Z,14.10
2023-02-14T07:44:19.686Z,13.60
2023-02-14T07:45:21.882Z,13.5
2023-02-14T07:46:20.115Z,12.60
2023-02-14T07:47:19.552Z,12.30
2023-02-14T07:48:19.479Z,12.80
2023-02-14T07:49:19.376Z,13.80
2023-02-14T07:50:19.478Z,13
2023-02-14T07:51:19.720Z,12.60
2023-02-14T07:52:19.883Z,13.69
2023-02-14T07:53:19.965Z,12
2023-02-14T07:54:20.417Z,13.69
2023-02-14T07:55:20.351Z,12.10
2023-02-14T07:56:19.510Z,13.69
2023-02-14T07:58:20.046Z,12.69
2023-02-14T07:59:19.941Z,13.30
2023-02-14T08:00:21.201Z,13.60
2023-02-14T08:01:19.747Z,13.89
2023-02-14T08:02:19.412Z,14.39
2023-02-14T08:03:19.755Z,11.80
2023-02-14T08:04:20.517Z,12.30
2023-02-14T08:05:21.235Z,10.69
2023-02-14T08:06:19.853Z,12.80
2023-02-14T08:07:19.974Z,11.30
2023-02-14T08:08:20.214Z,12.19
2023-02-14T08:09:20.075Z,12.5
2023-02-14T08:10:20.524Z,12.10
2023-02-14T08:11:20.063Z,13.10
2023-02-14T08:12:19.954Z,11.60
2023-02-14T08:13:19.818Z,13.10
2023-02-14T08:14:20.236Z,11.89
2023-02-14T08:15:20.007Z,12.10
2023-02-14T08:16:19.582Z,10.5
2023-02-14T08:17:19.923Z,12
2023-02-14T08:18:19.971Z,11.10
2023-02-14T08:19:19.818Z,14.69
2023-02-14T08:20:20.135Z,11.19
2023-02-14T08:21:20.031Z,11.39
2023-02-14T08:23:20.032Z,10
2023-02-14T08:24:20.468Z,10.60
2023-02-14T08:26:19.912Z,10.89
2023-02-14T08:27:19.906Z,10.10
2023-02-14T08:28:21.163Z,10.60
2023-02-14T08:29:20.135Z,10.80
2023-02-14T08:30:20.757Z,10.19
2023-02-14T08:32:20.514Z,10.89
2023-02-14T08:33:20.219Z,10.39
2023-02-14T08:34:19.764Z,9.300
2023-02-14T08:35:19.901Z,9
2023-02-14T08:36:20.342Z,10.60
2023-02-14T08:37:19.932Z,11.30
2023-02-14T08:38:19.918Z,10.19
2023-02-14T08:39:20.022Z,9.800
2023-02-14T08:40:20.627Z,9.699
2023-02-14T08:41:20.524Z,9.800
2023-02-14T08:42:20.462Z,10.60
2023-02-14T08:43:19.751Z,9.5
2023-02-14T08:44:20.055Z,10.39
2023-02-14T08:45:20.748Z,11.10
2023-02-14T08:46:19.870Z,10.5
2023-02-14T08:47:20.277Z,9.399
2023-02-14T08:48:19.598Z,10
2023-02-14T08:49:19.749Z,12.5
2023-02-14T08:50:19.983Z,11.89
2023-02-14T08:51:20.188Z,12.60
2023-02-14T08:52:20.126Z,12.69
2023-02-14T08:53:19.529Z,11.39
2023-02-14T08:54:20.165Z,12.80
2023-02-14T08:55:19.681Z,11.39
2023-02-14T08:56:20.331Z,12.5
2023-02-14T08:57:20.068Z,10.39
2023-02-14T08:58:20.414Z,11.39
2023-02-14T08:59:20.328Z,10.80
2023-02-14T09:00:20.502Z,10.60
2023-02-14T09:01:19.924Z,9.899
2023-02-14T09:02:24.274Z,11.5
2023-02-14T09:03:19.619Z,10.69
2023-02-14T09:04:20.276Z,10.80
2023-02-14T09:05:20.250Z,10.69
2023-02-14T09:06:24.678Z,10
2023-02-14T09:07:20.465Z,10.30
2023-02-14T09:08:20.204Z,10.19
2023-02-14T09:09:19.936Z,11.19
2023-02-14T09:10:20.539Z,10.5
2023-02-14T09:11:19.853Z,10.60
2023-02-14T09:12:25.654Z,12
2023-02-14T09:13:19.980Z,11.39
2023-02-14T09:14:29.276Z,13.30
2023-02-14T09:15:20.468Z,12.80
2023-02-14T09:16:20.050Z,12.30
2023-02-14T09:17:20.158Z,11.69
2023-02-14T09:19:19.818Z,12.30
2023-02-14T09:20:20.441Z,15.39
2023-02-14T09:21:19.878Z,14.10
2023-02-14T09:22:20.345Z,14
2023-02-14T09:23:19.917Z,15.30
2023-02-14T09:24:33.943Z,15.60
2023-02-14T09:25:20.074Z,16.39
2023-02-14T09:26:19.830Z,13.39
2023-02-14T09:27:19.909Z,14.89
2023-02-14T09:28:20.066Z,15.30
2023-02-14T09:29:20.149Z,14.5
2023-02-14T09:30:20.531Z,15.10
2023-02-14T09:31:20.181Z,15.69
2023-02-14T09:32:33.890Z,16.29
2023-02-14T09:33:20.036Z,15.89
2023-02-14T09:34:34.285Z,15.5
2023-02-14T09:35:19.788Z,17.89
2023-02-14T09:36:19.991Z,16.29
2023-02-14T09:37:20.061Z,15.69
2023-02-14T09:38:19.954Z,16.29
2023-02-14T09:39:20.558Z,16.10
2023-02-14T09:40:20.478Z,16.5
2023-02-14T09:41:19.984Z,17.5
2023-02-14T09:42:20.697Z,15.19
2023-02-14T09:43:20.535Z,16.79
2023-02-14T09:44:20.101Z,16.29
2023-02-14T09:45:20.438Z,18.20
2023-02-14T09:46:19.908Z,16.20
2023-02-14T09:48:20.043Z,18.29
2023-02-14T09:49:20.353Z,15.69
2023-02-14T09:50:20.059Z,18.39
2023-02-14T09:51:20.003Z,17.89
2023-02-14T09:52:20.108Z,15.69
2023-02-14T09:53:20.213Z,15.19
2023-02-14T09:54:19.936Z,15.60
2023-02-14T09:55:20.347Z,16.70
2023-02-14T09:56:20.029Z,15.69
2023-02-14T09:57:20.443Z,18.39
2023-02-14T09:58:20.026Z,18.70
2023-02-14T09:59:20.340Z,16.39
2023-02-14T10:00:20.667Z,17.70
2023-02-14T10:01:20.927Z,19.60
2023-02-14T10:02:20.399Z,19
2023-02-14T10:03:19.856Z,19.20
2023-02-14T10:04:20.245Z,19.29
2023-02-14T10:06:20.506Z,21.29
2023-02-14T10:07:20.566Z,19.39
2023-02-14T10:08:20.407Z,19.60
2023-02-14T10:09:20.020Z,19.29
2023-02-14T10:10:20.828Z,21.39
2023-02-14T10:11:21.011Z,21.60
2023-02-14T10:12:20.178Z,19.5
2023-02-14T10:13:20.422Z,18.5
2023-02-14T10:14:20.266Z,19.89
2023-02-14T10:15:20.454Z,18.79
2023-02-14T10:16:20.630Z,18.39
2023-02-14T10:17:20.225Z,20.20
2023-02-14T10:18:20.614Z,19.89
2023-02-14T10:19:20.178Z,18
2023-02-14T10:20:20.567Z,20
2023-02-14T10:21:20.757Z,20.29
2023-02-14T10:22:20.668Z,19
2023-02-14T10:23:20.953Z,18.5
2023-02-14T10:24:20.226Z,21.39
2023-02-14T10:25:20.779Z,20.89
2023-02-14T10:26:20.546Z,19.5
2023-02-14T10:27:20.683Z,19.70
2023-02-14T10:28:20.963Z,19.79
2023-02-14T10:29:20.399Z,19.10
2023-02-14T10:30:20.994Z,20.20
2023-02-14T10:31:20.787Z,19.79
2023-02-14T10:32:20.869Z,18.79
2023-02-14T10:33:20.643Z,21.60
2023-02-14T10:34:20.296Z,19.5
2023-02-14T10:35:20.613Z,20.5
2023-02-14T10:36:21.965Z,21
2023-02-14T10:37:21.329Z,20.60
2023-02-14T10:38:20.026Z,20.5
2023-02-14T10:39:20.792Z,21.10
2023-02-14T10:40:20.177Z,22.5
2023-02-14T10:41:20.338Z,21.20
2023-02-14T10:43:20.753Z,20.79
2023-02-14T10:44:20.025Z,21.20
2023-02-14T10:45:20.577Z,22.60
2023-02-14T10:46:21.205Z,22.89
2023-02-14T10:47:20.625Z,23
2023-02-14T10:48:20.588Z,18.60
2023-02-14T10:49:21.462Z,20.10
2023-02-14T10:50:21.567Z,20.89
2023-02-14T10:51:21.214Z,19.5
2023-02-14T10:52:21.198Z,21.5
2023-02-14T10:53:21.112Z,21.10
2023-02-14T10:54:21.533Z,23.5
2023-02-14T10:55:31.897Z,23.70
2023-02-14T10:56:20.385Z,21.29
2023-02-14T10:57:20.518Z,22.5
2023-02-14T10:58:20.338Z,21
2023-02-14T10:59:20.106Z,19.79
2023-02-14T11:00:21.122Z,21.5
2023-02-14T11:01:20.431Z,21.60
2023-02-14T11:02:20.735Z,21.39
2023-02-14T11:04:20.551Z,22.70
2023-02-14T11:05:21.004Z,21.29
2023-02-14T11:07:20.444Z,20.20
2023-02-14T11:08:20.624Z,20.29
2023-02-14T11:09:21.326Z,21.10
2023-02-14T11:10:19.149Z,23.39
2023-02-14T11:11:21.049Z,21.20
2023-02-14T11:12:21.236Z,22
2023-02-14T11:13:21.093Z,20.79
2023-02-14T11:15:20.532Z,22
2023-02-14T11:16:20.135Z,21.89
2023-02-14T11:17:20.025Z,25.60
2023-02-14T11:18:20.633Z,24.70
2023-02-14T11:19:20.579Z,20.79
2023-02-14T11:20:20.587Z,21
2023-02-14T11:22:20.543Z,19.70
2023-02-14T11:23:21.054Z,22.60
2023-02-14T11:24:20.164Z,20.89
2023-02-14T11:25:20.552Z,22
2023-02-14T11:26:20.818Z,22.89
2023-02-14T11:28:21.009Z,23
2023-02-14T11:29:21.097Z,20.89
2023-02-14T11:30:21.426Z,20.79
2023-02-14T11:31:20.615Z,21.20
2023-02-14T11:32:20.295Z,23.5
2023-02-14T11:33:20.881Z,20.70
2023-02-14T11:34:20.331Z,20.10
2023-02-14T11:35:20.703Z,20.20
2023-02-14T11:36:21.159Z,21.39
2023-02-14T11:37:26.083Z,19.10
2023-02-14T11:38:20.596Z,18.10
2023-02-14T11:39:21.925Z,19.89
2023-02-14T11:40:21.163Z,21.20
2023-02-14T11:41:20.410Z,21.39
2023-02-14T11:43:20.240Z,19.60
2023-02-14T11:44:20.421Z,21
2023-02-14T11:45:20.105Z,21.60
2023-02-14T11:47:20.586Z,19.89
2023-02-14T11:48:31.418Z,21
2023-02-14T11:49:20.688Z,22.10
2023-02-14T11:50:21.234Z,22.29
2023-02-14T11:51:21.096Z,21.70
2023-02-14T11:52:21.119Z,20.20
2023-02-14T11:53:20.770Z,20.60
2023-02-14T11:54:21.003Z,18.89
2023-02-14T11:55:20.411Z,20.60
2023-02-14T11:56:21.289Z,20
2023-02-14T11:57:20.803Z,19.89
2023-02-14T11:59:39.068Z,21.5
2023-02-14T12:00:22.089Z,19.60
2023-02-14T12:01:21.130Z,20.10
2023-02-14T12:02:20.896Z,19.5
2023-02-14T12:03:20.266Z,20.5
2023-02-14T12:04:21.574Z,21.70
2023-02-14T12:05:21.601Z,20.10
2023-02-14T12:06:21.548Z,18.70
2023-02-14T12:07:20.568Z,18.60
2023-02-14T12:08:22.179Z,19.29
2023-02-14T12:09:21.181Z,18.29
2023-02-14T12:10:22.128Z,20.10
2023-02-14T12:11:21.510Z,20.5
2023-02-14T12:12:22.022Z,21.60
2023-02-14T12:13:20.777Z,21.70
2023-02-14T12:14:20.973Z,18.89
2023-02-14T12:15:20.537Z,21.5
2023-02-14T12:16:20.551Z,20
2023-02-14T12:17:19.872Z,20.5
2023-02-14T12:18:19.708Z,19.10
2023-02-14T12:19:19.825Z,19.89
2023-02-14T12:20:20.646Z,21.10
2023-02-14T12:21:19.918Z,20.39
2023-02-14T12:22:20.989Z,18.89
2023-02-14T12:23:20.723Z,19
2023-02-14T12:24:19.842Z,21.29
2023-02-14T12:25:20.316Z,20
2023-02-14T12:26:19.951Z,18.29
2023-02-14T12:28:18.872Z,18.10
2023-02-14T12:29:20.296Z,17.5
2023-02-14T12:30:20.400Z,18
2023-02-14T12:31:20.099Z,18.60
2023-02-14T12:32:19.880Z,18.5
2023-02-14T12:33:20.261Z,19.70
2023-02-14T12:34:20.486Z,17.89
2023-02-14T12:35:20.126Z,19
2023-02-14T12:37:20.016Z,18.70
2023-02-14T12:38:20.538Z,18.79
2023-02-14T12:39:19.989Z,17.60
2023-02-14T12:40:20.519Z,18.29
2023-02-14T12:41:19.918Z,17.89
2023-02-14T12:42:20.287Z,19.10
2023-02-14T12:43:19.992Z,18.20
2023-02-14T12:44:20.287Z,18.60
2023-02-14T12:46:19.818Z,18.20
2023-02-14T12:47:20.388Z,19.10
2023-02-14T12:48:19.918Z,19.20
2023-02-14T12:49:20.130Z,23.29
2023-02-14T12:50:19.612Z,21.20
2023-02-14T12:51:20.071Z,19.5
2023-02-14T12:52:20.134Z,22.10
2023-02-14T12:53:20.240Z,19.20
2023-02-14T12:54:19.596Z,18.79
2023-02-14T12:55:21.116Z,19.5
2023-02-14T12:56:19.856Z,18.70
2023-02-14T12:57:20.232Z,20.79
2023-02-14T12:58:19.697Z,16.5
2023-02-14T12:59:19.801Z,20.20
2023-02-14T13:00:21.125Z,18
2023-02-14T13:01:28.474Z,19.70
2023-02-14T13:02:20.212Z,18.79
2023-02-14T13:03:19.726Z,20.20
2023-02-14T13:04:19.930Z,19.10
2023-02-14T13:05:20.168Z,20
2023-02-14T13:07:19.693Z,19.60
2023-02-14T13:08:19.802Z,19.89
2023-02-14T13:09:20.065Z,19.20
2023-02-14T13:10:19.644Z,19.39
2023-02-14T13:11:19.693Z,21.10
2023-02-14T13:12:19.876Z,22.39
2023-02-14T13:13:19.793Z,21.79
2023-02-14T13:14:19.527Z,21.60
2023-02-14T13:15:20.363Z,21.20
2023-02-14T13:16:20.429Z,22.70
2023-02-14T13:17:19.835Z,20.60
2023-02-14T13:18:19.425Z,20.89
2023-02-14T13:19:19.497Z,21.20
2023-02-14T13:20:20.010Z,20.39
2023-02-14T13:21:20.014Z,20
2023-02-14T13:22:20.354Z,19.79
2023-02-14T13:23:19.569Z,20.5
2023-02-14T13:24:20.831Z,19.70
2023-02-14T13:25:21.286Z,20.79
2023-02-14T13:26:21.146Z,19.70
2023-02-14T13:27:22.102Z,21.5
2023-02-14T13:28:19.965Z,19.79
2023-02-14T13:29:21.129Z,19.89
2023-02-14T13:30:20.257Z,19.70
2023-02-14T13:31:20.103Z,20.10
2023-02-14T13:32:19.758Z,20.39
2023-02-14T13:33:20.295Z,20.79
2023-02-14T13:34:19.926Z,19.5
2023-02-14T13:35:20.217Z,20.10
2023-02-14T13:36:19.934Z,22.10
2023-02-14T13:37:19.855Z,19.10
2023-02-14T13:38:20.556Z,21.70
2023-02-14T13:39:20.092Z,21.29
2023-02-14T13:40:20.179Z,21.20
2023-02-14T13:41:19.784Z,21.39
2023-02-14T13:42:19.913Z,20.29
2023-02-14T13:43:19.991Z,21
2023-02-14T13:44:20.037Z,19.29
2023-02-14T13:45:20.275Z,21
2023-02-14T13:46:20.579Z,22
2023-02-14T13:47:20.008Z,19.79
2023-02-14T13:48:20.446Z,19.39
2023-02-14T13:49:20.220Z,20.60
2023-02-14T13:50:20.838Z,19.60
2023-02-14T13:51:20.925Z,21.29